Time;durP1;ratioP1;P1;durP2;ratioP2;P2;SDS_P1;SDS_P2;PMS_P1;PMS_P2;Temp;Humidity;BMP_temperature;BMP_pressure;BME280_temperature;BME280_humidity;BME280_pressure;Samples;Min_cycle;Max_cycle;Signal;HPM_P1;HPM_P2
2021/06/19 00:00:47;;;;;;;1.55;0.75;;;12.60;99.90;;;;;;5084035;28;20043;-59
2021/06/19 00:03:13;;;;;;;3.53;0.85;;;12.60;99.90;;;;;;5079881;28;20028;-59
2021/06/19 00:05:38;;;;;;;1.25;0.68;;;12.60;99.90;;;;;;5076007;28;20039;-58
2021/06/19 00:08:05;;;;;;;2.70;0.80;;;12.60;99.90;;;;;;5074174;28;20488;-61
2021/06/19 00:10:30;;;;;;;3.08;1.00;;;12.60;99.90;;;;;;5070887;28;20021;-59
2021/06/19 00:12:56;;;;;;;2.17;0.90;;;12.60;99.90;;;;;;5074717;28;20428;-59
2021/06/19 00:15:23;;;;;;;1.70;0.90;;;12.50;99.90;;;;;;5079563;28;20482;-59
2021/06/19 00:17:49;;;;;;;4.57;0.95;;;12.60;99.90;;;;;;5074716;28;20020;-62
2021/06/19 00:20:18;;;;;;;4.38;1.00;;;12.50;99.90;;;;;;5083731;28;20050;-59
2021/06/19 00:22:44;;;;;;;7.95;1.10;;;12.50;99.90;;;;;;5072392;28;20199;-59
2021/06/19 00:25:12;;;;;;;3.70;0.98;;;12.40;99.90;;;;;;5081527;28;20107;-59
2021/06/19 00:27:38;;;;;;;7.55;1.42;;;12.40;99.90;;;;;;5071397;28;20090;-60
2021/06/19 00:30:06;;;;;;;4.15;1.33;;;12.40;99.90;;;;;;5080551;28;20478;-59
2021/06/19 00:32:31;;;;;;;6.60;1.10;;;12.50;99.90;;;;;;5072884;28;20475;-59
2021/06/19 00:34:57;;;;;;;5.82;1.20;;;12.50;99.90;;;;;;5080354;28;20031;-58
2021/06/19 00:37:23;;;;;;;7.75;1.40;;;12.40;99.90;;;;;;5071374;28;20453;-60
2021/06/19 00:39:49;;;;;;;3.83;1.20;;;12.40;99.90;;;;;;5057353;28;20021;-59
2021/06/19 00:42:21;;;;;;;4.80;1.20;;;12.50;99.90;;;;;;5070368;28;20505;-59
2021/06/19 00:44:48;;;;;;;4.68;1.25;;;12.50;99.90;;;;;;5072713;28;20056;-62
2021/06/19 00:47:14;;;;;;;6.32;1.30;;;12.50;99.90;;;;;;5079961;28;20094;-61
2021/06/19 00:49:40;;;;;;;4.18;1.08;;;12.40;99.90;;;;;;5077533;28;20039;-59
2021/06/19 00:52:06;;;;;;;2.95;1.00;;;12.50;99.90;;;;;;5085498;28;20406;-59
2021/06/19 00:54:33;;;;;;;3.35;0.98;;;12.50;99.90;;;;;;5074673;28;20036;-59
2021/06/19 00:57:00;;;;;;;2.10;1.00;;;12.50;99.90;;;;;;5074489;28;20070;-59
2021/06/19 00:59:26;;;;;;;3.28;0.93;;;12.50;99.90;;;;;;5079398;28;20040;-59
2021/06/19 01:01:55;;;;;;;5.32;1.30;;;12.50;99.90;;;;;;5074029;28;20036;-58
2021/06/19 01:04:21;;;;;;;5.38;1.10;;;12.50;99.90;;;;;;5072955;28;20037;-59
2021/06/19 01:06:46;;;;;;;5.75;1.30;;;12.50;99.90;;;;;;5074822;28;20484;-58
2021/06/19 01:09:12;;;;;;;4.25;1.40;;;12.50;99.90;;;;;;5076247;28;20479;-58
2021/06/19 01:11:39;;;;;;;6.03;1.13;;;12.60;99.90;;;;;;5081383;28;20036;-58
2021/06/19 01:14:07;;;;;;;3.70;1.10;;;12.50;99.90;;;;;;5071070;28;20039;-60
2021/06/19 01:16:34;;;;;;;3.63;1.08;;;12.50;99.90;;;;;;5070185;28;20104;-59
2021/06/19 01:19:00;;;;;;;8.55;1.35;;;12.50;99.90;;;;;;5071844;28;20043;-60
2021/06/19 01:21:29;;;;;;;6.07;1.00;;;12.50;99.90;;;;;;5075418;28;20064;-59
2021/06/19 01:23:55;;;;;;;5.63;1.10;;;12.40;99.90;;;;;;5080484;28;20032;-62
2021/06/19 01:26:24;;;;;;;3.58;1.13;;;12.40;99.90;;;;;;5075090;28;20041;-61
2021/06/19 01:28:50;;;;;;;9.52;1.50;;;12.40;99.90;;;;;;5082086;28;20051;-59
2021/06/19 01:31:17;;;;;;;8.98;1.40;;;12.40;99.90;;;;;;5078762;28;20145;-59
2021/06/19 01:33:44;;;;;;;5.90;1.42;;;12.40;99.90;;;;;;5088217;28;20031;-59
2021/06/19 01:36:10;;;;;;;11.93;1.42;;;12.40;99.90;;;;;;5085090;28;20316;-61
2021/06/19 01:38:42;;;;;;;11.32;1.40;;;12.40;99.90;;;;;;5086852;28;20024;-60
2021/06/19 01:41:16;;;;;;;4.78;1.20;;;12.50;99.90;;;;;;5087876;28;20359;-61
2021/06/19 01:43:43;;;;;;;4.15;0.98;;;12.50;99.90;;;;;;5087702;28;20079;-59
2021/06/19 01:46:10;;;;;;;5.95;1.55;;;12.40;99.90;;;;;;5092426;28;20039;-58
2021/06/19 01:48:36;;;;;;;5.13;1.00;;;12.50;99.90;;;;;;5094309;28;20036;-59
2021/06/19 01:51:02;;;;;;;5.20;1.20;;;12.40;99.90;;;;;;5091718;28;20016;-58
2021/06/19 01:53:28;;;;;;;4.60;1.20;;;12.40;99.90;;;;;;5085293;28;20539;-59
2021/06/19 01:55:54;;;;;;;3.78;1.30;;;12.50;99.90;;;;;;5086521;28;20100;-59
2021/06/19 01:58:19;;;;;;;3.33;1.20;;;12.50;99.90;;;;;;5087063;28;20068;-59
2021/06/19 02:00:45;;;;;;;5.93;1.15;;;12.50;99.90;;;;;;5093416;28;20044;-58
2021/06/19 02:03:11;;;;;;;5.95;1.10;;;12.50;99.90;;;;;;5093789;28;20039;-58
2021/06/19 02:05:37;;;;;;;5.90;1.30;;;12.50;99.90;;;;;;5093403;28;20028;-59
2021/06/19 02:08:08;;;;;;;3.85;1.02;;;12.50;99.90;;;;;;5093578;28;20032;-59
2021/06/19 02:10:37;;;;;;;3.97;0.93;;;12.50;99.90;;;;;;5088694;28;20036;-59
2021/06/19 02:13:05;;;;;;;6.35;1.23;;;12.60;99.90;;;;;;5079411;28;20020;-59
2021/06/19 02:15:35;;;;;;;5.95;1.10;;;12.60;99.90;;;;;;5088658;28;20025;-60
2021/06/19 02:18:02;;;;;;;7.28;1.38;;;12.50;99.90;;;;;;5091236;28;20024;-59
2021/06/19 02:20:28;;;;;;;5.18;1.30;;;12.50;99.90;;;;;;5093088;28;20415;-59
2021/06/19 02:22:54;;;;;;;4.35;1.40;;;12.50;99.90;;;;;;5093308;28;20784;-60
2021/06/19 02:25:23;;;;;;;4.90;1.25;;;12.50;99.90;;;;;;5082437;28;20041;-61
2021/06/19 02:28:03;;;;;;;4.45;1.10;;;12.50;99.90;;;;;;5088631;28;20040;-59
2021/06/19 02:30:41;;;;;;;4.00;1.20;;;12.40;99.90;;;;;;5068978;28;20513;-59
2021/06/19 02:33:07;;;;;;;6.68;1.30;;;12.50;99.90;;;;;;5093707;28;20079;-60
2021/06/19 02:35:35;;;;;;;6.35;1.33;;;12.40;99.90;;;;;;5093158;28;20028;-60
2021/06/19 02:38:02;;;;;;;5.70;1.20;;;12.50;99.90;;;;;;5093606;28;20035;-60
2021/06/19 02:40:28;;;;;;;5.03;1.13;;;12.50;99.90;;;;;;5093059;28;20489;-59
2021/06/19 02:42:54;;;;;;;7.45;1.33;;;12.50;99.90;;;;;;5083404;28;20044;-60
2021/06/19 02:45:20;;;;;;;4.57;1.23;;;12.40;99.90;;;;;;5086632;28;20043;-60
2021/06/19 02:47:51;;;;;;;5.22;1.20;;;12.40;99.90;;;;;;5081347;28;20045;-59
2021/06/19 02:50:19;;;;;;;5.57;1.50;;;12.50;99.90;;;;;;5076457;28;20071;-59
2021/06/19 02:52:45;;;;;;;6.53;1.40;;;12.50;99.90;;;;;;5085670;28;20024;-60
2021/06/19 02:55:13;;;;;;;4.32;1.20;;;12.60;99.90;;;;;;5087165;28;20032;-60
2021/06/19 02:57:40;;;;;;;3.72;1.20;;;12.50;99.90;;;;;;5079218;28;20032;-59
2021/06/19 03:00:08;;;;;;;5.05;1.35;;;12.50;99.90;;;;;;5085189;28;20108;-60
2021/06/19 03:02:34;;;;;;;5.47;1.20;;;12.60;99.90;;;;;;5092188;28;20122;-61
2021/06/19 03:05:00;;;;;;;6.25;1.45;;;12.60;99.90;;;;;;5089742;28;20115;-59
2021/06/19 03:07:26;;;;;;;10.07;1.75;;;12.60;99.90;;;;;;5084630;28;20036;-59
2021/06/19 03:09:53;;;;;;;5.55;1.30;;;12.60;99.90;;;;;;5075554;28;20035;-60
2021/06/19 03:12:18;;;;;;;4.65;1.45;;;12.60;99.90;;;;;;5086428;28;20032;-60
2021/06/19 03:14:44;;;;;;;7.10;1.40;;;12.60;99.90;;;;;;5093045;28;20036;-59
2021/06/19 03:17:10;;;;;;;7.30;1.80;;;12.60;99.90;;;;;;5091639;28;20442;-59
2021/06/19 03:19:36;;;;;;;4.53;1.17;;;12.70;99.90;;;;;;5084049;28;20036;-61
2021/06/19 03:22:03;;;;;;;9.18;1.83;;;12.70;99.90;;;;;;5084801;28;20031;-60
2021/06/19 03:24:28;;;;;;;7.53;1.27;;;12.60;99.90;;;;;;5086096;28;20023;-60
2021/06/19 03:26:55;;;;;;;4.78;1.40;;;12.60;99.90;;;;;;5091359;28;20394;-59
2021/06/19 03:29:21;;;;;;;7.40;1.35;;;12.60;99.90;;;;;;5080686;28;20106;-60
2021/06/19 03:31:47;;;;;;;4.38;1.20;;;12.60;99.90;;;;;;5080185;28;20031;-59
2021/06/19 03:34:13;;;;;;;6.75;1.40;;;12.50;99.90;;;;;;5076924;28;20029;-60
2021/06/19 03:36:40;;;;;;;5.72;1.40;;;12.50;99.90;;;;;;5083818;28;20039;-60
2021/06/19 03:39:05;;;;;;;6.72;1.35;;;12.60;99.90;;;;;;5085686;28;20056;-59
2021/06/19 03:41:31;;;;;;;6.82;1.58;;;12.50;99.90;;;;;;5091127;28;20082;-60
2021/06/19 03:43:57;;;;;;;5.90;1.60;;;12.60;99.90;;;;;;5092176;28;20031;-60
2021/06/19 03:46:22;;;;;;;3.88;0.98;;;12.60;99.90;;;;;;5091400;28;20081;-59
2021/06/19 03:48:48;;;;;;;7.95;1.50;;;12.60;99.90;;;;;;5092363;28;20032;-60
2021/06/19 03:51:14;;;;;;;4.82;1.10;;;12.70;99.90;;;;;;5091489;28;20024;-60
2021/06/19 03:53:39;;;;;;;5.05;1.20;;;12.60;99.90;;;;;;5089836;28;20028;-60
2021/06/19 03:56:05;;;;;;;4.60;1.25;;;12.60;99.90;;;;;;5091551;28;20490;-61
2021/06/19 03:58:31;;;;;;;5.68;1.30;;;12.60;99.90;;;;;;5080342;28;20378;-60
2021/06/19 04:00:57;;;;;;;6.72;1.23;;;12.60;99.90;;;;;;5088701;28;20383;-60
2021/06/19 04:03:22;;;;;;;6.18;0.90;;;12.60;99.90;;;;;;5088947;28;20067;-60
2021/06/19 04:05:48;;;;;;;5.82;1.30;;;12.60;99.90;;;;;;5087870;28;20820;-59
2021/06/19 04:08:14;;;;;;;4.45;1.00;;;12.60;99.90;;;;;;5077678;28;20532;-59
2021/06/19 04:10:40;;;;;;;4.72;1.10;;;12.50;99.90;;;;;;5085805;28;20107;-60
2021/06/19 04:13:05;;;;;;;6.18;1.15;;;12.50;99.90;;;;;;5090702;28;20033;-61
2021/06/19 04:15:31;;;;;;;9.98;1.23;;;12.50;99.90;;;;;;5082883;28;20035;-60
2021/06/19 04:17:57;;;;;;;3.03;1.05;;;12.60;99.90;;;;;;5090327;28;20474;-59
2021/06/19 04:20:23;;;;;;;4.00;0.95;;;12.60;99.90;;;;;;5080442;28;20443;-61
2021/06/19 04:22:49;;;;;;;5.45;0.90;;;12.60;99.90;;;;;;5071215;28;20492;-61
2021/06/19 04:25:16;;;;;;;6.60;3.90;;;12.60;99.90;;;;;;5080578;28;20737;-59
2021/06/19 04:27:51;;;;;;;7.35;2.45;;;12.60;99.90;;;;;;5088267;28;20025;-61
2021/06/19 04:30:17;;;;;;;;;;;12.60;99.90;;;;;;5083015;28;20563;-60
2021/06/19 04:32:43;;;;;;;5.13;1.20;;;12.60;99.90;;;;;;5090360;28;19947;-60
2021/06/19 04:35:13;;;;;;;6.35;1.45;;;12.60;99.90;;;;;;5091428;28;20032;-60
2021/06/19 04:37:39;;;;;;;4.05;1.20;;;12.60;99.90;;;;;;5090784;28;20032;-61
2021/06/19 04:42:39;;;;;;;6.70;1.30;;;12.60;99.90;;;;;;5090991;28;20032;-60
2021/06/19 04:45:07;;;;;;;6.15;1.30;;;12.70;99.90;;;;;;5089880;28;20035;-60
2021/06/19 04:47:34;;;;;;;4.82;1.23;;;12.70;99.90;;;;;;5082805;28;20032;-59
2021/06/19 04:50:01;;;;;;;6.50;1.48;;;12.70;99.90;;;;;;5077117;28;20024;-60
2021/06/19 04:52:33;;;;;;;3.83;1.15;;;12.70;99.90;;;;;;5089552;28;20036;-60
2021/06/19 04:55:00;;;;;;;7.53;1.50;;;12.70;99.90;;;;;;5090998;28;20473;-60
2021/06/19 04:57:26;;;;;;;7.32;1.70;;;12.70;99.90;;;;;;5088096;28;20432;-60
2021/06/19 04:59:52;;;;;;;6.75;1.90;;;12.70;99.90;;;;;;5081440;28;20024;-59
2021/06/19 05:02:18;;;;;;;7.13;1.73;;;12.70;99.90;;;;;;5090299;28;20460;-59
2021/06/19 05:04:44;;;;;;;9.50;1.60;;;12.70;99.90;;;;;;5091197;28;20032;-61
2021/06/19 05:07:11;;;;;;;10.73;1.98;;;12.70;99.90;;;;;;5088125;28;20394;-60
2021/06/19 05:09:36;;;;;;;8.15;1.67;;;12.70;99.90;;;;;;5079372;28;20024;-60
2021/06/19 05:12:02;;;;;;;6.97;1.60;;;12.70;99.90;;;;;;5077554;28;20036;-60
2021/06/19 05:14:28;;;;;;;10.23;1.80;;;12.80;99.90;;;;;;5079882;28;20032;-60
2021/06/19 05:16:54;;;;;;;8.40;1.77;;;12.80;99.90;;;;;;5078884;28;20120;-60
2021/06/19 05:19:21;;;;;;;9.85;1.63;;;12.80;99.90;;;;;;5089484;28;20036;-59
2021/06/19 05:21:46;;;;;;;13.02;2.25;;;12.80;99.90;;;;;;5083270;28;20028;-60
2021/06/19 05:24:13;;;;;;;8.98;2.38;;;12.80;99.90;;;;;;5094037;28;20024;-60
2021/06/19 05:26:39;;;;;;;11.13;1.90;;;12.80;99.90;;;;;;5093606;28;20385;-60
2021/06/19 05:29:05;;;;;;;10.07;2.10;;;12.80;99.90;;;;;;5089451;28;20504;-60
2021/06/19 05:31:31;;;;;;;14.75;2.20;;;12.80;99.90;;;;;;5094171;28;20099;-60
2021/06/19 05:33:57;;;;;;;9.35;2.20;;;12.80;99.90;;;;;;5094542;28;20035;-60
2021/06/19 05:36:22;;;;;;;13.05;2.70;;;12.80;99.90;;;;;;5094265;28;20047;-60
2021/06/19 05:38:48;;;;;;;13.80;2.50;;;12.80;99.90;;;;;;5091755;28;20480;-60
2021/06/19 05:41:14;;;;;;;7.47;1.95;;;12.80;99.90;;;;;;5076342;28;20762;-60
2021/06/19 05:43:39;;;;;;;7.63;1.92;;;12.80;99.90;;;;;;5091279;28;20459;-60
2021/06/19 05:46:06;;;;;;;11.00;1.95;;;12.90;99.90;;;;;;5082832;28;20474;-61
2021/06/19 05:48:32;;;;;;;7.07;1.70;;;13.00;99.90;;;;;;5090799;28;20036;-60
2021/06/19 05:50:57;;;;;;;11.35;2.20;;;13.00;99.90;;;;;;5094649;28;20028;-60
2021/06/19 05:53:24;;;;;;;10.95;2.10;;;13.00;99.90;;;;;;5093041;28;20031;-60
2021/06/19 05:55:49;;;;;;;13.48;1.95;;;13.10;99.90;;;;;;5093022;28;20020;-60
2021/06/19 05:58:15;;;;;;;10.40;1.98;;;13.10;99.90;;;;;;5075904;28;20047;-60
2021/06/19 06:00:41;;;;;;;10.20;2.33;;;13.20;99.90;;;;;;5093802;28;20016;-60
2021/06/19 06:03:06;;;;;;;11.27;2.30;;;13.20;99.90;;;;;;5083289;28;20550;-60
2021/06/19 06:05:33;;;;;;;10.73;2.22;;;13.20;99.90;;;;;;5093589;28;20031;-61
2021/06/19 06:08:00;;;;;;;10.93;2.10;;;13.20;99.90;;;;;;5093580;28;20035;-60
2021/06/19 06:10:30;;;;;;;9.93;1.90;;;13.20;99.90;;;;;;5090012;28;20039;-60
2021/06/19 06:12:57;;;;;;;9.80;2.17;;;13.20;99.90;;;;;;5070329;28;20111;-60
2021/06/19 06:15:24;;;;;;;8.50;1.60;;;13.10;99.90;;;;;;5083733;28;20032;-61
2021/06/19 06:17:50;;;;;;;9.85;2.10;;;13.20;99.90;;;;;;5084634;28;20451;-60
2021/06/19 06:20:16;;;;;;;7.93;1.85;;;13.20;99.90;;;;;;5083664;28;20036;-61
2021/06/19 06:22:42;;;;;;;10.63;2.20;;;13.20;99.90;;;;;;5087277;28;21741;-60
2021/06/19 06:25:09;;;;;;;14.85;2.88;;;13.20;99.90;;;;;;5093677;28;20028;-59
2021/06/19 06:27:34;;;;;;;10.80;3.08;;;13.20;99.90;;;;;;5090334;28;20032;-60
2021/06/19 06:30:00;;;;;;;10.77;2.30;;;13.30;99.90;;;;;;5092831;28;20590;-60
2021/06/19 06:32:27;;;;;;;8.32;2.00;;;13.30;99.90;;;;;;5089304;28;20093;-60
2021/06/19 06:34:52;;;;;;;14.32;2.58;;;13.30;99.90;;;;;;5092562;28;20081;-59
2021/06/19 06:37:18;;;;;;;12.20;2.42;;;13.30;99.90;;;;;;5092404;28;20428;-60
2021/06/19 06:39:44;;;;;;;8.43;1.80;;;13.40;99.90;;;;;;5092225;28;20036;-60
2021/06/19 06:42:10;;;;;;;7.72;1.73;;;13.40;99.90;;;;;;5092694;28;20024;-59
2021/06/19 06:44:36;;;;;;;6.32;1.70;;;13.30;99.90;;;;;;5093540;28;20095;-60
2021/06/19 06:47:03;;;;;;;10.88;2.22;;;13.40;99.90;;;;;;5090471;28;20447;-60
2021/06/19 06:49:29;;;;;;;6.10;1.73;;;13.40;99.90;;;;;;5090760;28;20157;-59
2021/06/19 06:51:55;;;;;;;13.18;2.78;;;13.40;99.90;;;;;;5092237;28;20131;-61
2021/06/19 06:54:20;;;;;;;6.35;2.00;;;13.50;99.90;;;;;;5086845;28;20024;-59
2021/06/19 06:56:46;;;;;;;8.95;2.00;;;13.60;99.90;;;;;;5090685;28;20481;-60
2021/06/19 06:59:12;;;;;;;11.52;1.98;;;13.60;99.90;;;;;;5081767;28;20466;-60
2021/06/19 07:01:37;;;;;;;10.80;1.70;;;13.60;99.90;;;;;;5082208;28;20039;-60
2021/06/19 07:04:03;;;;;;;7.95;1.90;;;13.60;99.90;;;;;;5074686;28;20038;-60
2021/06/19 07:06:29;;;;;;;10.45;2.67;;;13.60;99.90;;;;;;5076992;28;20037;-59
2021/06/19 07:08:55;;;;;;;10.55;2.10;;;13.80;99.90;;;;;;5090632;28;20031;-60
2021/06/19 07:11:21;;;;;;;14.18;2.30;;;13.90;99.90;;;;;;5076681;28;20028;-59
2021/06/19 07:13:46;;;;;;;10.10;2.42;;;13.90;99.90;;;;;;5082743;28;20032;-59
2021/06/19 07:16:12;;;;;;;11.27;2.10;;;14.00;99.90;;;;;;5077155;28;20107;-60
2021/06/19 07:18:38;;;;;;;8.60;2.05;;;14.00;99.90;;;;;;5090381;28;20389;-60
2021/06/19 07:21:04;;;;;;;7.75;1.83;;;14.10;99.90;;;;;;5078440;28;20164;-59
2021/06/19 07:23:29;;;;;;;9.13;1.75;;;14.20;99.90;;;;;;5082169;28;20393;-60
2021/06/19 07:25:56;;;;;;;10.73;2.13;;;14.10;99.90;;;;;;5084835;28;20036;-59
2021/06/19 07:28:22;;;;;;;9.75;1.80;;;14.00;99.90;;;;;;5089510;28;20028;-61
2021/06/19 07:30:48;;;;;;;9.40;2.00;;;14.00;99.90;;;;;;5088426;28;20395;-60
2021/06/19 07:33:15;;;;;;;9.52;1.70;;;14.10;99.90;;;;;;5087683;28;20019;-61
2021/06/19 07:35:41;;;;;;;5.88;1.58;;;14.00;99.90;;;;;;5086189;28;20062;-61
2021/06/19 07:38:06;;;;;;;7.18;2.13;;;14.10;99.90;;;;;;5091167;28;20032;-60
2021/06/19 07:40:33;;;;;;;10.13;2.15;;;14.10;99.90;;;;;;5085895;28;20381;-60
2021/06/19 07:42:59;;;;;;;8.48;1.60;;;14.20;99.90;;;;;;5071157;28;20493;-60
2021/06/19 07:45:25;;;;;;;7.30;1.88;;;14.30;99.90;;;;;;5071782;28;20039;-60
2021/06/19 07:47:50;;;;;;;14.40;2.03;;;14.20;99.90;;;;;;5075687;28;20040;-60
2021/06/19 07:50:16;;;;;;;9.27;1.98;;;14.30;99.90;;;;;;5088336;28;20024;-60
2021/06/19 07:52:43;;;;;;;13.43;1.77;;;14.30;99.90;;;;;;5077036;28;20040;-59
2021/06/19 07:55:09;;;;;;;11.35;2.25;;;14.30;99.90;;;;;;5080312;28;20103;-59
2021/06/19 07:57:35;;;;;;;13.32;2.47;;;14.40;99.90;;;;;;5073425;28;20458;-60
2021/06/19 08:00:01;;;;;;;12.48;1.98;;;14.30;99.90;;;;;;5082337;28;20032;-60
2021/06/19 08:02:27;;;;;;;5.85;1.83;;;14.20;99.90;;;;;;5070754;28;20032;-59
2021/06/19 08:04:53;;;;;;;12.38;2.17;;;14.20;99.90;;;;;;5073716;28;20374;-59
2021/06/19 08:07:18;;;;;;;13.18;2.45;;;14.30;99.90;;;;;;5076989;28;20029;-60
2021/06/19 08:09:45;;;;;;;8.90;2.22;;;14.30;99.90;;;;;;5086773;28;20020;-60
2021/06/19 08:12:10;;;;;;;10.38;2.20;;;14.30;99.90;;;;;;5072807;28;20446;-59
2021/06/19 08:14:36;;;;;;;10.35;2.10;;;14.30;99.90;;;;;;5074467;28;20056;-60
2021/06/19 08:17:15;;;;;;;13.15;2.70;;;14.30;99.90;;;;;;5074643;28;20036;-61
2021/06/19 08:19:44;;;;;;;14.65;2.47;;;14.40;99.90;;;;;;5072100;28;20056;-60
2021/06/19 08:22:10;;;;;;;11.90;2.30;;;14.50;99.90;;;;;;5070768;28;20035;-61
2021/06/19 08:24:36;;;;;;;8.98;1.85;;;14.50;99.90;;;;;;5073270;28;20041;-60
2021/06/19 08:27:01;;;;;;;16.88;2.00;;;14.50;99.90;;;;;;5071766;28;20029;-60
2021/06/19 08:29:27;;;;;;;17.10;2.92;;;14.50;99.90;;;;;;5075379;28;20418;-61
2021/06/19 08:31:53;;;;;;;13.82;2.72;;;14.50;99.90;;;;;;5078905;28;20028;-60
2021/06/19 08:34:19;;;;;;;13.32;2.78;;;14.60;99.90;;;;;;5084356;28;20029;-60
2021/06/19 08:36:44;;;;;;;9.35;2.40;;;14.50;99.90;;;;;;5091069;28;20024;-60
2021/06/19 08:39:10;;;;;;;12.00;3.17;;;14.60;99.90;;;;;;5089627;28;20045;-59
2021/06/19 08:41:37;;;;;;;10.27;1.80;;;14.60;99.90;;;;;;5091333;28;20481;-60
2021/06/19 08:44:04;;;;;;;8.18;2.03;;;14.50;99.90;;;;;;5090426;28;20028;-60
2021/06/19 08:46:30;;;;;;;7.07;1.95;;;14.50;99.90;;;;;;5090882;28;20091;-60
2021/06/19 08:48:57;;;;;;;8.68;1.90;;;14.50;99.90;;;;;;5090300;28;20051;-61
2021/06/19 08:51:24;;;;;;;11.50;2.08;;;14.40;99.90;;;;;;5090932;28;20474;-60
2021/06/19 08:53:51;;;;;;;8.88;2.00;;;14.50;99.90;;;;;;5083471;28;20032;-61
2021/06/19 08:56:18;;;;;;;12.13;2.53;;;14.60;99.90;;;;;;5076911;28;20052;-60
2021/06/19 08:58:45;;;;;;;11.65;2.42;;;14.70;99.90;;;;;;5073045;28;20020;-60
2021/06/19 09:01:11;;;;;;;10.57;1.90;;;14.80;99.90;;;;;;5077903;28;20017;-61
2021/06/19 09:03:38;;;;;;;8.57;2.10;;;14.70;99.90;;;;;;5076832;28;20351;-59
2021/06/19 09:06:27;;;;;;;26.88;2.78;;;14.80;99.90;;;;;;5070874;28;20028;-60
2021/06/19 09:09:05;;;;;;;22.67;2.55;;;14.90;99.90;;;;;;5073737;28;20052;-60
2021/06/19 09:11:32;;;;;;;15.10;2.80;;;14.90;99.90;;;;;;5078643;28;20502;-61
2021/06/19 09:14:01;;;;;;;13.48;2.92;;;15.00;99.90;;;;;;5074454;28;20031;-61
2021/06/19 09:16:27;;;;;;;16.00;2.30;;;15.10;99.90;;;;;;5070694;28;20122;-60
2021/06/19 09:18:53;;;;;;;16.75;2.85;;;15.20;99.90;;;;;;5072157;28;20035;-60
2021/06/19 09:21:36;;;;;;;10.13;2.00;;;15.20;99.90;;;;;;5070257;28;20036;-60
2021/06/19 09:24:02;;;;;;;8.00;2.15;;;15.10;99.90;;;;;;5078406;28;20032;-59
2021/06/19 09:26:32;;;;;;;11.30;3.85;;;15.00;99.90;;;;;;5081333;28;20127;-60
2021/06/19 09:29:06;;;;;;;14.32;2.45;;;15.10;99.90;;;;;;5070344;28;20068;-61
2021/06/19 09:31:36;;;;;;;7.38;1.90;;;15.10;99.90;;;;;;5074184;28;20028;-60
2021/06/19 09:34:06;;;;;;;10.68;1.90;;;15.00;99.90;;;;;;5076648;28;20546;-60
2021/06/19 09:36:43;;;;;;;6.88;1.70;;;15.20;99.90;;;;;;5085248;28;20552;-59
2021/06/19 09:39:11;;;;;;;10.85;2.13;;;15.20;99.90;;;;;;5089890;28;20032;-60
2021/06/19 09:41:46;;;;;;;13.98;2.17;;;15.20;99.90;;;;;;5083049;28;20029;-60
2021/06/19 09:44:13;;;;;;;;;;;15.30;99.90;;;;;;5073257;28;20083;-60
2021/06/19 09:46:39;;;;;;;12.50;2.13;;;15.30;99.90;;;;;;5077366;28;20369;-60
2021/06/19 09:49:15;;;;;;;18.80;2.22;;;15.20;99.90;;;;;;5075335;28;20078;-61
2021/06/19 09:51:49;;;;;;;12.68;2.30;;;15.30;99.90;;;;;;5079629;28;20021;-60
2021/06/19 09:54:15;;;;;;;10.20;2.10;;;15.40;99.90;;;;;;5073391;28;20029;-60
2021/06/19 09:56:53;;;;;;;17.50;1.98;;;15.30;99.90;;;;;;5084676;28;20490;-59
2021/06/19 09:59:26;;;;;;;12.85;2.67;;;15.30;99.90;;;;;;5073932;28;20165;-60
2021/06/19 10:01:53;;;;;;;11.05;2.15;;;15.40;99.90;;;;;;5074782;28;20123;-59
2021/06/19 10:04:20;;;;;;;12.40;1.90;;;15.40;99.90;;;;;;5078177;28;20050;-60
2021/06/19 10:06:46;;;;;;;10.23;2.53;;;15.40;99.90;;;;;;5083538;28;20607;-60
2021/06/19 10:09:14;;;;;;;10.02;2.30;;;15.50;99.90;;;;;;5089090;28;20073;-60
2021/06/19 10:11:41;;;;;;;9.38;2.55;;;15.70;99.90;;;;;;5091417;28;20020;-60
2021/06/19 10:14:10;;;;;;;15.75;2.28;;;15.70;99.90;;;;;;5090558;28;20033;-59
2021/06/19 10:16:40;;;;;;;7.85;2.38;;;15.80;99.90;;;;;;5093445;28;20166;-60
2021/06/19 10:19:07;;;;;;;10.10;2.25;;;15.80;99.90;;;;;;5091600;28;20027;-61
2021/06/19 10:21:33;;;;;;;7.40;2.50;;;15.70;99.90;;;;;;5083486;28;20024;-59
2021/06/19 10:24:00;;;;;;;6.25;2.53;;;15.60;99.90;;;;;;5085618;28;20036;-60
2021/06/19 10:26:25;;;;;;;6.20;2.38;;;15.60;99.90;;;;;;5075130;28;20419;-59
2021/06/19 10:28:59;;;;;;;8.57;2.55;;;15.70;99.90;;;;;;5073110;28;20036;-60
2021/06/19 10:31:26;;;;;;;7.43;2.15;;;15.90;99.90;;;;;;5086833;28;20474;-60
2021/06/19 10:33:52;;;;;;;7.53;1.90;;;16.00;99.90;;;;;;5086581;28;20033;-60
2021/06/19 10:36:18;;;;;;;10.32;2.22;;;16.00;99.90;;;;;;5088740;28;20188;-60
2021/06/19 10:38:55;;;;;;;6.95;2.03;;;16.00;99.90;;;;;;5088486;28;20452;-59
2021/06/19 10:41:50;;;;;;;15.80;2.28;;;16.00;99.90;;;;;;5088046;28;20119;-59
2021/06/19 10:44:49;;;;;;;8.38;1.50;;;15.90;99.90;;;;;;5063138;28;20094;-60
2021/06/19 10:47:19;;;;;;;14.40;4.03;;;15.80;99.90;;;;;;5088099;28;20036;-59
2021/06/19 10:49:45;;;;;;;5.68;1.83;;;15.80;99.90;;;;;;5086211;28;20028;-58
2021/06/19 10:52:22;;;;;;;10.77;2.15;;;15.80;99.90;;;;;;5080494;28;20039;-59
2021/06/19 10:55:14;;;;;;;10.27;2.08;;;15.90;99.90;;;;;;5082082;28;20150;-59
2021/06/19 10:57:51;;;;;;;9.75;2.95;;;16.00;99.90;;;;;;5070963;28;20032;-59
2021/06/19 11:00:43;;;;;;;9.93;2.15;;;16.00;99.90;;;;;;5071764;28;20059;-59
2021/06/19 11:03:09;;;;;;;12.65;2.03;;;15.90;99.90;;;;;;5083980;28;20033;-59
2021/06/19 11:05:41;;;;;;;7.35;1.92;;;15.90;99.90;;;;;;5087742;28;20036;-60
2021/06/19 11:08:17;;;;;;;8.75;1.77;;;16.00;99.90;;;;;;5084932;28;20035;-59
2021/06/19 11:13:30;;;;;;;11.95;1.98;;;16.10;99.90;;;;;;5083356;28;20028;-59
2021/06/19 11:16:03;;;;;;;9.18;2.22;;;15.90;99.90;;;;;;5080193;28;20111;-59
2021/06/19 11:18:47;;;;;;;10.68;3.03;;;15.90;99.90;;;;;;5089480;28;20028;-62
2021/06/19 11:21:17;;;;;;;12.95;3.15;;;16.00;99.90;;;;;;5091513;28;20020;-60
2021/06/19 11:24:04;;;;;;;14.73;2.47;;;16.00;99.90;;;;;;5079321;28;20036;-59
2021/06/19 11:26:53;;;;;;;15.38;4.10;;;16.00;99.90;;;;;;5075540;28;20028;-60
2021/06/19 11:29:34;;;;;;;17.35;3.17;;;16.20;99.90;;;;;;5078814;28;20040;-59
2021/06/19 11:32:27;;;;;;;9.77;3.17;;;16.10;99.90;;;;;;5071612;28;20021;-61
2021/06/19 11:34:55;;;;;;;10.13;2.83;;;16.20;99.90;;;;;;5065607;28;20398;-60
2021/06/19 11:37:21;;;;;;;20.92;5.20;;;16.20;99.90;;;;;;5082316;28;20426;-60
2021/06/19 11:39:47;;;;;;;17.55;3.00;;;16.20;99.90;;;;;;5078608;28;20037;-60
2021/06/19 11:42:14;;;;;;;8.73;2.40;;;16.20;99.90;;;;;;5072180;28;20513;-61
2021/06/19 11:44:42;;;;;;;14.88;4.28;;;16.10;99.90;;;;;;5068595;28;20024;-60
2021/06/19 11:47:09;;;;;;;6.53;2.08;;;16.20;99.90;;;;;;5069513;28;20028;-60
2021/06/19 11:49:45;;;;;;;7.38;2.00;;;16.20;99.90;;;;;;5070396;28;20413;-58
2021/06/19 11:52:17;;;;;;;8.73;2.42;;;16.30;99.90;;;;;;5069442;28;20351;-59
2021/06/19 11:54:48;;;;;;;11.15;2.55;;;16.30;99.90;;;;;;5080936;28;20103;-59
2021/06/19 11:57:26;;;;;;;10.10;3.05;;;16.20;99.90;;;;;;5074457;28;20036;-59
2021/06/19 12:00:05;;;;;;;17.13;3.55;;;16.20;99.90;;;;;;5070991;28;20107;-59
2021/06/19 12:02:31;;;;;;;10.82;2.30;;;16.20;99.90;;;;;;5061973;28;20059;-59
2021/06/19 12:04:56;;;;;;;9.18;2.22;;;16.40;99.90;;;;;;5070658;28;20471;-59
2021/06/19 12:07:28;;;;;;;9.43;2.33;;;16.40;99.90;;;;;;5071123;28;20017;-58
2021/06/19 12:09:53;;;;;;;10.68;2.13;;;16.40;99.90;;;;;;5070604;28;20029;-58
2021/06/19 12:12:19;;;;;;;7.05;1.90;;;16.30;99.90;;;;;;5071118;28;20039;-59
2021/06/19 12:14:45;;;;;;;9.65;1.65;;;16.40;99.90;;;;;;5070669;28;20466;-60
2021/06/19 12:17:12;;;;;;;7.72;1.75;;;16.40;99.90;;;;;;5071848;28;20033;-59
2021/06/19 12:19:40;;;;;;;5.90;1.60;;;16.50;99.90;;;;;;5070534;28;20036;-59
2021/06/19 12:22:08;;;;;;;87.72;33.15;;;16.60;99.90;;;;;;5070353;28;20027;-59
2021/06/19 12:24:37;;;;;;;4.80;1.20;;;16.40;99.90;;;;;;5054999;28;20064;-61
2021/06/19 12:27:02;;;;;;;5.72;1.50;;;16.40;99.90;;;;;;5071686;28;20033;-59
2021/06/19 12:29:39;;;;;;;7.80;1.50;;;16.40;99.90;;;;;;5072305;28;20509;-59
2021/06/19 12:32:25;;;;;;;9.65;2.05;;;16.40;99.90;;;;;;5071749;28;20020;-58
2021/06/19 12:34:55;;;;;;;8.57;2.47;;;16.20;99.90;;;;;;5077540;28;20028;-58
2021/06/19 12:37:23;;;;;;;9.27;1.75;;;16.30;99.90;;;;;;5088820;28;20037;-61
2021/06/19 12:39:48;;;;;;;3.38;1.58;;;16.30;99.90;;;;;;5082386;28;20032;-59
2021/06/19 12:42:37;;;;;;;5.88;1.60;;;16.10;99.90;;;;;;5090641;28;20464;-59
2021/06/19 12:45:19;;;;;;;7.18;1.80;;;16.00;99.90;;;;;;5086586;28;20036;-59
2021/06/19 12:47:47;;;;;;;7.78;1.98;;;16.00;99.90;;;;;;5082449;28;20027;-59
2021/06/19 12:50:34;;;;;;;7.93;1.75;;;16.20;99.90;;;;;;5085836;28;20043;-59
2021/06/19 12:53:11;;;;;;;6.25;2.00;;;16.20;99.90;;;;;;5085581;28;20027;-59